Terminal Aerodrome Forecast
Issued by NWS Charleston, WV

Current Version | Previous Version | Text Only | Print | Product List | Glossary Off
Versions: 1 2 3 4 5 6 7 8 9 10 11 12 13 14 15 16 17 18 19 20 21 22 23 24 25

000
FTUS41 KRLX 210616 AAA
TAFBKW
TAF AMD
KBKW 210616Z 2106/2206 16007KT P6SM SCT050 WS020/18040KT
     FM211300 19008G16KT P6SM BKN090
     FM212200 26007KT P6SM SHRA BKN035
     FM220200 13004KT 2SM SHRA BR BKN015=

USA.gov is the U.S. government's official web portal to all federal, state and local government web resources and services.